Time;durP1;ratioP1;P1;durP2;ratioP2;P2;SDS_P1;SDS_P2;PMS_P1;PMS_P2;Temp;Humidity;BMP_temperature;BMP_pressure;BME280_temperature;BME280_humidity;BME280_pressure;Samples;Min_cycle;Max_cycle;Signal;HPM_P1;HPM_P2
2021/11/08 00:00:01;;;;;;;7.13;5.95;;;23.60;38.60;;;;;;5030857;28;20147;-58
2021/11/08 00:02:29;;;;;;;8.23;6.18;;;23.60;38.60;;;;;;5044769;28;20638;-58
2021/11/08 00:04:56;;;;;;;7.03;6.15;;;23.60;38.60;;;;;;5044039;28;20219;-58
2021/11/08 00:07:24;;;;;;;8.68;5.93;;;23.60;38.60;;;;;;5044722;28;20076;-58
2021/11/08 00:09:51;;;;;;;6.28;5.60;;;23.60;38.60;;;;;;5031864;28;20122;-58
2021/11/08 00:12:21;;;;;;;7.22;5.88;;;23.60;38.60;;;;;;5024605;28;20132;-58
2021/11/08 00:14:53;;;;;;;7.00;5.80;;;23.60;38.70;;;;;;5025855;28;20052;-59
2021/11/08 00:17:34;;;;;;;7.53;6.20;;;23.60;38.70;;;;;;5025186;28;20080;-58
2021/11/08 00:20:09;;;;;;;7.90;5.90;;;23.60;38.70;;;;;;5030543;28;20057;-58
2021/11/08 00:22:39;;;;;;;7.05;5.63;;;23.60;38.70;;;;;;5027522;28;20504;-58
2021/11/08 00:25:08;;;;;;;6.43;5.72;;;23.60;38.70;;;;;;5044920;28;20143;-58
2021/11/08 00:27:36;;;;;;;7.53;6.32;;;23.60;38.70;;;;;;5046554;28;20507;-58
2021/11/08 00:30:04;;;;;;;8.10;6.45;;;23.60;38.70;;;;;;5028260;28;20351;-58
2021/11/08 00:32:31;;;;;;;7.97;6.00;;;23.60;38.70;;;;;;5046804;28;20125;-58
2021/11/08 00:34:58;;;;;;;7.05;6.03;;;23.60;39.30;;;;;;5048303;28;20078;-58
2021/11/08 00:37:26;;;;;;;7.30;5.90;;;23.60;38.70;;;;;;5046617;28;20110;-58
2021/11/08 00:39:53;;;;;;;6.97;5.78;;;23.60;38.70;;;;;;5029105;28;20513;-58
2021/11/08 00:42:20;;;;;;;6.57;5.82;;;23.60;38.70;;;;;;5048086;28;20139;-58
2021/11/08 00:44:47;;;;;;;7.68;5.97;;;23.60;38.70;;;;;;5048741;28;20076;-58
2021/11/08 00:47:15;;;;;;;7.30;5.55;;;23.60;38.70;;;;;;5047989;28;20060;-58
2021/11/08 00:49:43;;;;;;;6.72;5.68;;;23.60;38.70;;;;;;5028124;28;20122;-58
2021/11/08 00:52:11;;;;;;;7.18;6.05;;;23.60;38.70;;;;;;5047456;28;20769;-58
2021/11/08 00:54:39;;;;;;;5.88;5.28;;;23.70;38.70;;;;;;5047950;28;20079;-58
2021/11/08 00:57:11;;;;;;;7.72;6.10;;;23.60;38.70;;;;;;5047263;28;20130;-57
2021/11/08 00:59:39;;;;;;;6.30;5.65;;;23.60;38.60;;;;;;5034530;28;20705;-58
2021/11/08 01:02:07;;;;;;;6.45;5.40;;;23.60;38.70;;;;;;5027930;28;20096;-58
2021/11/08 01:04:36;;;;;;;6.75;5.70;;;23.60;38.70;;;;;;5027747;28;20155;-58
2021/11/08 01:07:03;;;;;;;7.00;5.88;;;23.70;38.70;;;;;;5027679;28;20505;-58
2021/11/08 01:09:32;;;;;;;6.50;5.60;;;23.60;38.70;;;;;;5029088;28;20056;-58
2021/11/08 01:12:00;;;;;;;6.57;5.72;;;23.60;38.70;;;;;;5047360;28;20766;-58
2021/11/08 01:14:27;;;;;;;6.53;5.90;;;23.60;38.70;;;;;;5047973;28;20438;-58
2021/11/08 01:16:56;;;;;;;6.30;5.70;;;23.70;38.70;;;;;;5047288;28;20424;-58
2021/11/08 01:19:27;;;;;;;6.40;5.63;;;23.60;38.70;;;;;;5033188;28;20052;-58
2021/11/08 01:22:04;;;;;;;7.82;5.93;;;23.60;38.70;;;;;;5047452;28;20072;-58
2021/11/08 01:24:38;;;;;;;6.07;5.35;;;23.60;38.70;;;;;;5045454;28;20574;-58
2021/11/08 01:27:06;;;;;;;6.43;5.32;;;23.60;38.70;;;;;;5047493;28;20280;-58
2021/11/08 01:29:33;;;;;;;7.30;5.82;;;23.60;38.70;;;;;;5025907;28;20589;-58
2021/11/08 01:32:05;;;;;;;5.90;5.13;;;23.60;38.70;;;;;;5027392;28;20049;-59
2021/11/08 01:34:33;;;;;;;6.90;5.47;;;23.60;38.70;;;;;;5026901;28;20080;-58
2021/11/08 01:37:01;;;;;;;6.65;5.75;;;23.60;38.70;;;;;;5027510;28;20143;-59
2021/11/08 01:39:33;;;;;;;6.28;5.30;;;23.60;38.70;;;;;;5023655;28;20059;-58
2021/11/08 01:42:05;;;;;;;7.60;5.88;;;23.60;38.70;;;;;;5027323;28;20053;-58
2021/11/08 01:44:32;;;;;;;5.72;4.80;;;23.60;38.70;;;;;;5026995;28;20132;-58
2021/11/08 01:47:01;;;;;;;6.90;5.55;;;23.60;38.70;;;;;;5027168;28;20793;-58
2021/11/08 01:49:29;;;;;;;6.20;5.00;;;23.60;38.70;;;;;;5026457;28;20953;-59
2021/11/08 01:51:58;;;;;;;6.78;5.32;;;23.60;38.70;;;;;;5047149;28;20109;-58
2021/11/08 01:54:26;;;;;;;6.93;5.32;;;23.60;38.80;;;;;;5046367;28;20139;-58
2021/11/08 01:56:55;;;;;;;5.70;4.82;;;23.60;38.80;;;;;;5048502;28;20495;-58
2021/11/08 01:59:23;;;;;;;7.53;5.78;;;23.60;38.80;;;;;;5031646;28;20291;-59
2021/11/08 02:01:52;;;;;;;5.85;5.18;;;23.60;38.80;;;;;;5045352;28;20588;-58
2021/11/08 02:04:20;;;;;;;5.13;4.45;;;23.60;38.80;;;;;;5046280;28;20141;-58
2021/11/08 02:06:47;;;;;;;5.75;5.05;;;23.60;38.80;;;;;;5046340;28;20549;-58
2021/11/08 02:09:15;;;;;;;6.97;4.85;;;23.60;38.90;;;;;;5027117;28;20140;-58
2021/11/08 02:11:43;;;;;;;6.25;5.13;;;23.60;38.90;;;;;;5047196;28;20052;-58
2021/11/08 02:14:10;;;;;;;6.15;5.05;;;23.60;38.90;;;;;;5045941;28;20088;-58
2021/11/08 02:16:38;;;;;;;7.93;5.43;;;23.60;38.90;;;;;;5047417;28;20151;-58
2021/11/08 02:19:05;;;;;;;6.72;4.93;;;23.60;38.90;;;;;;5031726;28;20473;-58
2021/11/08 02:21:33;;;;;;;6.82;5.22;;;23.60;38.90;;;;;;5025475;28;20083;-57
2021/11/08 02:24:03;;;;;;;5.90;5.03;;;23.50;38.90;;;;;;5025577;28;20290;-57
2021/11/08 02:26:31;;;;;;;6.75;5.32;;;23.60;38.90;;;;;;5027104;28;20060;-57
2021/11/08 02:28:58;;;;;;;5.00;4.50;;;23.50;38.90;;;;;;5024115;28;20742;-57
2021/11/08 02:31:27;;;;;;;5.75;5.13;;;23.60;38.90;;;;;;5023121;28;20131;-57
2021/11/08 02:33:54;;;;;;;5.50;4.57;;;23.60;38.90;;;;;;5025646;28;20045;-57
2021/11/08 02:36:22;;;;;;;6.78;5.20;;;23.60;38.90;;;;;;5026578;28;20072;-58
2021/11/08 02:38:53;;;;;;;4.55;4.05;;;23.60;38.90;;;;;;5020879;28;20143;-57
2021/11/08 02:41:21;;;;;;;6.15;4.93;;;23.60;38.90;;;;;;5023777;28;20652;-57
2021/11/08 02:43:48;;;;;;;6.53;4.95;;;23.60;38.80;;;;;;5025491;28;20520;-58
2021/11/08 02:46:18;;;;;;;6.75;5.25;;;23.60;38.80;;;;;;5026442;28;20100;-58
2021/11/08 02:48:50;;;;;;;5.32;4.82;;;23.60;38.90;;;;;;5020164;28;20092;-58
2021/11/08 02:51:22;;;;;;;5.75;4.88;;;23.60;38.90;;;;;;5041436;28;20135;-58
2021/11/08 02:53:53;;;;;;;5.55;4.55;;;23.60;38.90;;;;;;5045132;28;20473;-57
2021/11/08 02:56:20;;;;;;;6.88;4.53;;;23.60;38.90;;;;;;5045659;28;20671;-58
2021/11/08 02:58:48;;;;;;;6.18;5.15;;;23.60;38.90;;;;;;5036569;28;20057;-57
2021/11/08 03:01:18;;;;;;;4.45;4.03;;;23.60;38.90;;;;;;5039674;28;20163;-58
2021/11/08 03:03:56;;;;;;;5.72;4.55;;;23.60;39.00;;;;;;5046029;28;20395;-58
2021/11/08 03:06:30;;;;;;;5.22;4.32;;;23.60;39.00;;;;;;5045590;28;20052;-58
2021/11/08 03:09:05;;;;;;;6.05;4.80;;;23.60;39.00;;;;;;5038922;28;20592;-57
2021/11/08 03:11:32;;;;;;;5.50;4.57;;;23.60;38.90;;;;;;5024001;28;20049;-58
2021/11/08 03:14:09;;;;;;;6.15;5.10;;;23.50;38.90;;;;;;5025084;28;20162;-58
2021/11/08 03:16:48;;;;;;;5.47;4.53;;;23.50;38.90;;;;;;5025808;28;20049;-58
2021/11/08 03:19:31;;;;;;;4.30;3.90;;;23.50;38.90;;;;;;5021162;28;20092;-58
2021/11/08 03:22:01;;;;;;;5.82;4.45;;;23.50;38.90;;;;;;5026008;28;20682;-58
2021/11/08 03:24:41;;;;;;;4.53;4.10;;;23.50;38.90;;;;;;5023408;28;20331;-58
2021/11/08 03:27:26;;;;;;;4.82;4.20;;;23.50;38.90;;;;;;5025542;28;20510;-58
2021/11/08 03:29:54;;;;;;;5.47;4.50;;;23.50;39.00;;;;;;5022959;28;20437;-58
2021/11/08 03:32:22;;;;;;;4.57;4.15;;;23.50;39.00;;;;;;5025439;28;20060;-58
2021/11/08 03:34:57;;;;;;;6.05;4.55;;;23.50;39.00;;;;;;5023105;28;20557;-58
2021/11/08 03:37:26;;;;;;;4.28;3.83;;;23.50;39.00;;;;;;5025477;28;20152;-58
2021/11/08 03:39:53;;;;;;;6.18;4.88;;;23.50;39.00;;;;;;5018601;28;20237;-57
2021/11/08 03:42:20;;;;;;;6.15;5.07;;;23.50;39.00;;;;;;5043862;28;20052;-58
2021/11/08 03:44:48;;;;;;;4.30;3.88;;;23.50;39.00;;;;;;5043614;28;20135;-57
2021/11/08 03:47:16;;;;;;;4.82;4.35;;;23.50;39.10;;;;;;5045997;28;20302;-58
2021/11/08 03:49:43;;;;;;;5.35;4.55;;;23.50;39.10;;;;;;5020305;28;20792;-58
2021/11/08 03:52:10;;;;;;;5.38;4.32;;;23.50;39.10;;;;;;5043851;28;20503;-58
2021/11/08 03:54:37;;;;;;;4.38;3.95;;;23.50;39.10;;;;;;5044318;28;20052;-58
2021/11/08 03:57:05;;;;;;;4.80;4.28;;;23.50;39.10;;;;;;5045187;28;20400;-57
2021/11/08 03:59:32;;;;;;;5.88;4.85;;;23.50;39.10;;;;;;5015321;28;20148;-58
2021/11/08 04:02:01;;;;;;;5.50;4.70;;;23.50;39.10;;;;;;5027012;28;20473;-58
2021/11/08 04:04:28;;;;;;;5.07;4.30;;;23.50;39.10;;;;;;5028484;28;20139;-58
2021/11/08 04:06:57;;;;;;;5.35;4.18;;;23.50;39.10;;;;;;5029196;28;20118;-58
2021/11/08 04:09:24;;;;;;;4.93;4.28;;;23.50;39.10;;;;;;5022745;28;20053;-57
2021/11/08 04:11:54;;;;;;;6.13;4.78;;;23.50;39.10;;;;;;5028998;28;20088;-57
2021/11/08 04:14:24;;;;;;;4.70;4.20;;;23.50;39.10;;;;;;5028530;28;20661;-58
2021/11/08 04:16:51;;;;;;;4.35;3.60;;;23.50;39.10;;;;;;5028513;28;20787;-58
2021/11/08 04:19:19;;;;;;;4.50;4.05;;;23.50;39.10;;;;;;5011288;28;20116;-58
2021/11/08 04:21:47;;;;;;;5.05;3.95;;;23.50;39.10;;;;;;5011183;28;20228;-57
2021/11/08 04:24:14;;;;;;;4.20;3.80;;;23.50;39.10;;;;;;5017842;28;20071;-58
2021/11/08 04:26:42;;;;;;;4.05;3.67;;;23.50;39.10;;;;;;5014667;28;20107;-58
2021/11/08 04:29:09;;;;;;;4.13;3.72;;;23.50;39.10;;;;;;5019588;28;20140;-59
2021/11/08 04:31:38;;;;;;;3.83;3.53;;;23.50;39.10;;;;;;5027953;28;20080;-57
2021/11/08 04:34:19;;;;;;;4.20;3.80;;;23.50;39.10;;;;;;5028711;28;20496;-57
2021/11/08 04:37:13;;;;;;;4.32;3.70;;;23.50;39.10;;;;;;5010426;28;20111;-57
2021/11/08 04:40:01;;;;;;;4.00;3.60;;;23.50;39.10;;;;;;5018192;28;20062;-57
2021/11/08 04:42:31;;;;;;;3.85;3.53;;;23.50;39.10;;;;;;5047789;28;20513;-58
2021/11/08 04:45:17;;;;;;;5.88;4.28;;;23.50;39.10;;;;;;5048401;28;20048;-57
2021/11/08 04:50:41;;;;;;;4.28;3.88;;;23.50;39.10;;;;;;5018117;28;20049;-57
2021/11/08 04:53:18;;;;;;;3.85;3.38;;;23.50;39.10;;;;;;5028103;28;20084;-58
2021/11/08 05:20:56;;;;;;;4.60;3.38;;;23.50;39.20;;;;;;5007926;28;20051;-58
2021/11/08 05:32:00;;;;;;;3.78;3.35;;;23.40;39.30;;;;;;5025950;28;20128;-57
2021/11/08 05:34:28;;;;;;;5.43;3.80;;;23.40;39.30;;;;;;5027454;28;20056;-57
2021/11/08 05:36:55;;;;;;;4.93;3.30;;;23.40;39.30;;;;;;5027499;28;20076;-57
2021/11/08 05:39:23;;;;;;;4.00;3.40;;;23.40;39.30;;;;;;5015599;28;20217;-57
2021/11/08 05:41:50;;;;;;;3.67;3.35;;;23.50;39.30;;;;;;5027199;28;20484;-57
2021/11/08 05:44:17;;;;;;;3.80;3.40;;;23.50;39.30;;;;;;5027362;28;20357;-57
2021/11/08 05:46:44;;;;;;;3.85;3.40;;;23.50;39.30;;;;;;5024924;28;20084;-58
2021/11/08 05:49:12;;;;;;;4.25;3.60;;;23.40;39.20;;;;;;5015902;28;20125;-57
2021/11/08 05:51:40;;;;;;;3.58;3.22;;;23.50;39.30;;;;;;5021053;28;20147;-59
2021/11/08 05:54:07;;;;;;;3.30;3.00;;;23.40;39.20;;;;;;5026239;28;20501;-58
2021/11/08 05:56:50;;;;;;;3.53;2.97;;;23.40;39.20;;;;;;5022546;28;20102;-58
2021/11/08 05:59:39;;;;;;;3.60;3.30;;;23.50;39.30;;;;;;5011437;28;20057;-58
2021/11/08 06:49:26;;;;;;;2.70;2.40;;;23.90;40.10;;;;;;5002129;28;20057;-58
2021/11/08 06:51:56;;;;;;;6.10;3.27;;;24.00;39.90;;;;;;5016264;28;20123;-58
2021/11/08 06:54:26;;;;;;;3.25;2.58;;;24.10;39.70;;;;;;5015983;28;20053;-58
2021/11/08 06:56:58;;;;;;;4.95;2.72;;;24.10;39.70;;;;;;5017107;28;20080;-58
2021/11/08 06:59:27;;;;;;;3.70;2.70;;;24.20;40.00;;;;;;5005705;28;20053;-57
2021/11/08 07:01:57;;;;;;;2.88;2.40;;;24.20;40.10;;;;;;5013330;28;20056;-58
2021/11/08 07:04:25;;;;;;;2.97;2.45;;;24.30;40.10;;;;;;5018333;28;20045;-60
2021/11/08 07:06:52;;;;;;;3.28;2.67;;;24.40;40.10;;;;;;5017436;28;20045;-62
2021/11/08 07:09:19;;;;;;;3.50;2.55;;;24.50;40.10;;;;;;5010703;28;20053;-62
2021/11/08 07:11:49;;;;;;;3.20;2.60;;;24.50;40.20;;;;;;5006785;28;20150;-61
2021/11/08 07:14:16;;;;;;;3.55;2.63;;;24.60;40.20;;;;;;5015813;28;20103;-62
2021/11/08 07:16:45;;;;;;;5.82;2.47;;;24.70;40.10;;;;;;5024468;28;20056;-62
2021/11/08 07:19:14;;;;;;;2.90;2.42;;;24.70;40.00;;;;;;5016532;28;20088;-61
2021/11/08 07:21:42;;;;;;;4.78;2.72;;;24.70;39.80;;;;;;5017763;28;20044;-61
2021/11/08 07:24:10;;;;;;;3.15;2.22;;;24.80;39.70;;;;;;5020625;28;20073;-62
2021/11/08 07:26:38;;;;;;;7.72;3.33;;;24.80;39.70;;;;;;5019285;28;20503;-61
2021/11/08 07:29:07;;;;;;;2.65;2.10;;;24.90;40.00;;;;;;5004979;28;20048;-61
2021/11/08 07:31:36;;;;;;;5.05;2.83;;;24.90;39.40;;;;;;5012115;28;20135;-62
2021/11/08 07:34:03;;;;;;;2.35;2.10;;;24.90;39.40;;;;;;5018679;28;20056;-62
2021/11/08 07:36:31;;;;;;;4.43;2.40;;;24.90;39.30;;;;;;5019096;28;20084;-62
2021/11/08 07:38:58;;;;;;;3.67;2.78;;;24.90;39.40;;;;;;5010448;28;20135;-63
2021/11/08 07:41:26;;;;;;;4.45;2.42;;;24.90;39.40;;;;;;5017471;28;20076;-62
2021/11/08 07:43:53;;;;;;;4.30;2.30;;;24.90;39.30;;;;;;5019644;28;20129;-61
2021/11/08 07:46:21;;;;;;;2.40;2.20;;;24.90;39.40;;;;;;5018547;28;20045;-60
2021/11/08 07:48:48;;;;;;;5.85;2.53;;;24.90;39.40;;;;;;5010420;28;20053;-60
2021/11/08 07:51:18;;;;;;;3.08;2.15;;;24.90;39.50;;;;;;5010671;28;20080;-60
2021/11/08 07:53:46;;;;;;;2.25;2.05;;;24.90;39.40;;;;;;5013554;28;20072;-62
2021/11/08 07:56:13;;;;;;;2.53;1.90;;;24.90;39.50;;;;;;5012674;28;20148;-62
2021/11/08 07:58:41;;;;;;;2.20;1.92;;;24.80;39.50;;;;;;5004602;28;20049;-62
2021/11/08 08:01:09;;;;;;;2.83;2.20;;;24.90;39.60;;;;;;5002203;28;20084;-63
2021/11/08 08:03:38;;;;;;;3.25;2.10;;;24.90;39.60;;;;;;5013586;28;20441;-63
2021/11/08 08:06:06;;;;;;;4.10;1.90;;;24.80;39.60;;;;;;5013344;28;20052;-62
2021/11/08 08:08:35;;;;;;;3.05;1.92;;;24.80;39.60;;;;;;5010495;28;20073;-62
2021/11/08 08:11:04;;;;;;;3.83;2.40;;;24.90;39.60;;;;;;5006589;28;20136;-62
2021/11/08 08:13:34;;;;;;;4.63;2.28;;;24.90;39.80;;;;;;5012506;28;20065;-62
2021/11/08 08:16:04;;;;;;;4.95;2.83;;;24.90;39.80;;;;;;5014693;28;20495;-62
2021/11/08 08:18:37;;;;;;;3.40;2.20;;;24.90;39.80;;;;;;5008239;28;20057;-60
2021/11/08 08:21:05;;;;;;;5.00;2.17;;;24.90;39.80;;;;;;5006189;28;20490;-61
2021/11/08 08:23:54;;;;;;;2.47;2.17;;;24.90;39.90;;;;;;5014927;28;20059;-60
2021/11/08 08:26:24;;;;;;;2.25;2.05;;;24.90;39.80;;;;;;5011668;28;20786;-61
2021/11/08 08:28:51;;;;;;;;;;;24.90;40.40;;;;;;5002994;28;20582;-61
2021/11/08 08:31:19;;;;;;;3.10;2.38;;;24.90;39.90;;;;;;5012478;28;19924;-61
2021/11/08 08:33:47;;;;;;;7.75;2.28;;;24.90;40.00;;;;;;5014240;28;20143;-61
2021/11/08 08:36:14;;;;;;;3.83;2.08;;;25.00;40.00;;;;;;5014154;28;20166;-61
2021/11/08 08:38:41;;;;;;;3.05;2.03;;;25.00;40.10;;;;;;5007881;28;20149;-61
2021/11/08 08:41:08;;;;;;;2.42;2.22;;;25.00;40.10;;;;;;5005821;28;20080;-61
2021/11/08 08:43:36;;;;;;;2.42;2.22;;;25.00;40.00;;;;;;5014457;28;20436;-61
2021/11/08 08:46:04;;;;;;;5.07;2.53;;;25.00;40.00;;;;;;5010742;28;20465;-61
2021/11/08 08:48:31;;;;;;;5.10;2.45;;;25.00;40.10;;;;;;5006187;28;20052;-62
2021/11/08 08:51:00;;;;;;;2.45;2.05;;;25.00;40.10;;;;;;5009287;28;20049;-61
2021/11/08 08:53:29;;;;;;;2.17;1.92;;;25.10;40.20;;;;;;5021092;28;20049;-61
2021/11/08 08:56:16;;;;;;;4.45;2.90;;;25.10;40.20;;;;;;5021326;28;20056;-59
2021/11/08 08:58:43;;;;;;;6.53;2.30;;;25.10;40.30;;;;;;5012007;28;20060;-60
2021/11/08 09:01:11;;;;;;;4.13;2.63;;;25.10;40.70;;;;;;5009674;28;20139;-61
2021/11/08 09:03:38;;;;;;;4.45;2.30;;;25.10;40.60;;;;;;5023381;28;20449;-62
2021/11/08 09:06:05;;;;;;;3.53;2.17;;;25.10;40.50;;;;;;5020645;28;20186;-61
2021/11/08 09:08:35;;;;;;;4.95;2.70;;;25.10;40.60;;;;;;5011704;28;20743;-61
2021/11/08 09:11:02;;;;;;;2.63;2.00;;;25.20;40.60;;;;;;5011656;28;20079;-62
2021/11/08 09:13:29;;;;;;;3.15;2.30;;;25.20;40.40;;;;;;5017689;28;20052;-61
2021/11/08 09:15:57;;;;;;;7.15;2.45;;;25.20;40.30;;;;;;5014946;28;20564;-61
2021/11/08 09:18:24;;;;;;;3.35;2.40;;;25.20;40.40;;;;;;5003391;28;20052;-61
2021/11/08 09:20:52;;;;;;;2.88;2.60;;;25.30;40.50;;;;;;5007054;28;20494;-61
2021/11/08 09:23:19;;;;;;;5.03;3.10;;;25.30;40.20;;;;;;5022260;28;20154;-62
2021/11/08 09:25:46;;;;;;;5.32;3.13;;;25.30;40.20;;;;;;5015984;28;20060;-61
2021/11/08 09:28:16;;;;;;;2.97;2.55;;;25.40;40.20;;;;;;5014668;28;20462;-61
2021/11/08 09:30:44;;;;;;;2.78;2.38;;;25.40;40.10;;;;;;5008233;28;20057;-60
2021/11/08 09:33:12;;;;;;;3.15;2.15;;;25.40;40.10;;;;;;5019274;28;20080;-61
2021/11/08 09:35:46;;;;;;;3.90;2.60;;;25.40;39.90;;;;;;5016413;28;20131;-61
2021/11/08 09:38:14;;;;;;;7.65;2.63;;;25.50;39.90;;;;;;5015703;28;20456;-61
2021/11/08 09:40:43;;;;;;;2.70;2.50;;;25.50;39.90;;;;;;5007715;28;20063;-61
2021/11/08 09:43:14;;;;;;;2.92;2.58;;;25.50;39.80;;;;;;5019779;28;20149;-61
2021/11/08 09:45:42;;;;;;;3.08;2.25;;;25.60;39.70;;;;;;5021249;28;20053;-61
2021/11/08 09:48:12;;;;;;;2.47;1.85;;;25.60;39.60;;;;;;5011662;28;20148;-61
2021/11/08 09:50:45;;;;;;;3.20;2.17;;;25.70;39.70;;;;;;5005928;28;20052;-60
2021/11/08 09:53:15;;;;;;;2.35;2.15;;;25.70;39.60;;;;;;5024538;28;20140;-60
2021/11/08 09:55:44;;;;;;;2.80;2.58;;;25.70;39.60;;;;;;5019433;28;20088;-61
2021/11/08 09:58:13;;;;;;;2.65;2.45;;;25.70;39.90;;;;;;5006667;28;20978;-61
2021/11/08 10:00:47;;;;;;;3.25;2.53;;;25.80;40.00;;;;;;5007898;28;20628;-60
2021/11/08 10:03:20;;;;;;;4.82;2.90;;;25.80;39.80;;;;;;5019831;28;20144;-61
2021/11/08 10:05:49;;;;;;;2.15;2.05;;;25.90;39.70;;;;;;5016034;28;20049;-61
2021/11/08 10:08:21;;;;;;;1.98;1.85;;;26.00;39.70;;;;;;5007963;28;20052;-60
2021/11/08 10:10:51;;;;;;;1.98;1.88;;;26.00;39.60;;;;;;5017360;28;20053;-61
2021/11/08 10:13:22;;;;;;;2.17;1.88;;;26.10;39.60;;;;;;5019106;28;20491;-61
2021/11/08 10:15:52;;;;;;;3.72;2.20;;;26.10;39.60;;;;;;5016157;28;20631;-61
2021/11/08 10:18:21;;;;;;;;;;;26.20;39.60;;;;;;5010291;28;20049;-61
2021/11/08 10:20:51;;;;;;;3.45;1.70;;;26.20;39.60;;;;;;5010996;28;20353;-61
2021/11/08 10:23:20;;;;;;;5.15;1.63;;;26.20;39.70;;;;;;5018419;28;20076;-61
2021/11/08 10:25:48;;;;;;;2.58;1.90;;;26.20;39.50;;;;;;5022646;28;20084;-61
2021/11/08 10:28:20;;;;;;;1.88;1.70;;;26.20;39.30;;;;;;5012011;28;20106;-61
2021/11/08 10:30:53;;;;;;;3.60;2.15;;;26.30;39.20;;;;;;5007870;28;20127;-61
2021/11/08 10:33:25;;;;;;;1.80;1.65;;;26.20;39.00;;;;;;5020772;28;20059;-61
2021/11/08 10:35:56;;;;;;;1.95;1.85;;;26.30;39.00;;;;;;5019554;28;20118;-61
2021/11/08 10:38:26;;;;;;;1.92;1.83;;;26.20;38.90;;;;;;5010596;28;20678;-61
2021/11/08 10:41:04;;;;;;;1.83;1.73;;;26.20;38.90;;;;;;5009744;28;20061;-61
2021/11/08 10:43:37;;;;;;;2.05;1.73;;;26.20;38.90;;;;;;5002732;28;20041;-62
2021/11/08 10:46:14;;;;;;;1.60;1.50;;;26.20;38.80;;;;;;5013920;28;20132;-60
2021/11/08 10:48:46;;;;;;;1.95;1.60;;;26.20;38.80;;;;;;5010335;28;20399;-60
2021/11/08 10:51:17;;;;;;;1.90;1.70;;;26.20;38.70;;;;;;5014493;28;20136;-60
2021/11/08 10:53:53;;;;;;;1.40;1.23;;;26.30;38.70;;;;;;5016992;28;20041;-60
2021/11/08 10:56:26;;;;;;;2.08;1.85;;;26.30;38.60;;;;;;5021495;28;20773;-59
2021/11/08 10:58:57;;;;;;;1.70;1.60;;;26.30;38.60;;;;;;5013156;28;20048;-60
2021/11/08 11:01:32;;;;;;;1.88;1.48;;;26.30;38.60;;;;;;5017808;28;20057;-61
2021/11/08 11:04:02;;;;;;;2.25;1.80;;;26.30;38.40;;;;;;5019063;28;20049;-61
2021/11/08 11:06:36;;;;;;;1.83;1.73;;;26.30;38.30;;;;;;5020077;28;20505;-61
2021/11/08 11:09:10;;;;;;;6.40;2.05;;;26.30;38.20;;;;;;5011167;28;20048;-58
2021/11/08 11:11:37;;;;;;;1.55;1.45;;;26.30;38.00;;;;;;5018218;28;20056;-57
2021/11/08 11:14:05;;;;;;;2.20;1.90;;;26.30;37.80;;;;;;5017580;28;20421;-60
2021/11/08 11:16:36;;;;;;;4.05;1.92;;;26.30;37.60;;;;;;5020743;28;20053;-61
2021/11/08 11:19:08;;;;;;;4.47;1.70;;;26.30;37.70;;;;;;5013480;28;20041;-60
2021/11/08 11:21:37;;;;;;;2.03;1.67;;;26.20;38.40;;;;;;5022015;28;20126;-61
2021/11/08 11:24:06;;;;;;;5.05;1.48;;;26.30;38.10;;;;;;5019377;28;20582;-60
2021/11/08 11:26:50;;;;;;;1.65;1.55;;;26.30;38.00;;;;;;5028572;28;20075;-61
2021/11/08 11:29:29;;;;;;;1.65;1.55;;;26.30;38.00;;;;;;5015211;28;20083;-61
2021/11/08 11:31:57;;;;;;;2.05;1.73;;;26.40;38.00;;;;;;5014928;28;20417;-61
2021/11/08 11:34:24;;;;;;;1.50;1.40;;;26.40;37.90;;;;;;5021595;28;20048;-61
2021/11/08 11:36:52;;;;;;;2.03;1.60;;;26.40;37.80;;;;;;5016477;28;20545;-62
2021/11/08 11:39:21;;;;;;;2.42;1.60;;;26.40;37.70;;;;;;5009978;28;20572;-62
2021/11/08 11:41:49;;;;;;;1.77;1.67;;;26.50;37.70;;;;;;5018488;28;20536;-60
2021/11/08 11:44:20;;;;;;;1.67;1.58;;;26.50;37.70;;;;;;5020852;28;20565;-60
2021/11/08 11:46:54;;;;;;;1.60;1.50;;;26.50;37.70;;;;;;5025328;28;20110;-61
2021/11/08 11:49:22;;;;;;;1.98;1.23;;;26.50;37.60;;;;;;5013594;28;20136;-60
2021/11/08 11:51:54;;;;;;;2.67;1.52;;;26.50;37.40;;;;;;5018275;28;20116;-60
2021/11/08 11:54:25;;;;;;;3.13;1.10;;;26.50;37.30;;;;;;5020628;28;20110;-60
2021/11/08 11:56:54;;;;;;;1.25;1.15;;;26.50;37.20;;;;;;5018533;28;20107;-60
2021/11/08 11:59:21;;;;;;;1.23;1.00;;;26.50;37.20;;;;;;5006597;28;20053;-60
2021/11/08 12:01:50;;;;;;;4.32;1.15;;;26.50;37.10;;;;;;5015631;28;20106;-60
2021/11/08 12:04:26;;;;;;;1.27;0.95;;;26.50;37.10;;;;;;5021285;28;20045;-60
2021/11/08 12:06:58;;;;;;;1.30;1.20;;;26.40;37.10;;;;;;5026502;28;20148;-60
2021/11/08 12:09:28;;;;;;;1.60;1.38;;;26.40;37.10;;;;;;5010810;28;20721;-60
2021/11/08 12:11:56;;;;;;;1.10;1.00;;;26.40;37.10;;;;;;5021252;28;20052;-60
2021/11/08 12:14:27;;;;;;;1.63;1.30;;;26.40;37.20;;;;;;5023311;28;20045;-60
2021/11/08 12:17:16;;;;;;;2.33;1.35;;;26.40;37.10;;;;;;5023840;28;20055;-60
2021/11/08 12:19:45;;;;;;;1.45;1.35;;;26.40;36.90;;;;;;5006715;28;20111;-59
2021/11/08 12:22:21;;;;;;;1.70;1.10;;;26.40;37.10;;;;;;5021805;28;20085;-59
2021/11/08 12:25:01;;;;;;;2.13;1.00;;;26.40;37.10;;;;;;5021102;28;20045;-60
2021/11/08 12:27:41;;;;;;;1.15;1.15;;;26.40;37.30;;;;;;5027572;28;20102;-59
2021/11/08 12:30:15;;;;;;;1.30;1.20;;;26.40;37.20;;;;;;5011801;28;20059;-59
2021/11/08 12:32:48;;;;;;;2.63;1.20;;;26.30;37.10;;;;;;5022639;28;20095;-60
2021/11/08 12:35:21;;;;;;;3.60;1.10;;;26.30;37.20;;;;;;5026335;28;20134;-60
2021/11/08 12:37:49;;;;;;;1.00;0.95;;;26.30;37.30;;;;;;5021541;28;20068;-60
2021/11/08 12:40:28;;;;;;;1.80;0.98;;;26.30;37.20;;;;;;5003203;28;20136;-60
2021/11/08 12:42:56;;;;;;;1.42;1.10;;;26.30;37.30;;;;;;5022049;28;20049;-60
2021/11/08 12:45:27;;;;;;;1.10;1.08;;;26.30;37.20;;;;;;5020998;28;20908;-60
2021/11/08 12:48:02;;;;;;;1.08;1.00;;;26.30;37.20;;;;;;5019921;28;20049;-63
2021/11/08 12:50:39;;;;;;;2.60;1.30;;;26.30;37.30;;;;;;5009162;28;20126;-60
2021/11/08 12:53:25;;;;;;;1.67;1.13;;;26.30;37.30;;;;;;5022344;28;20483;-60
2021/11/08 12:55:58;;;;;;;2.00;1.20;;;26.30;37.20;;;;;;5024040;28;20053;-60
2021/11/08 12:58:42;;;;;;;1.25;1.15;;;26.30;37.20;;;;;;5020815;28;20080;-61
2021/11/08 13:01:15;;;;;;;2.08;1.25;;;26.30;37.20;;;;;;5007011;28;20049;-60
2021/11/08 13:03:45;;;;;;;2.55;0.90;;;26.20;37.10;;;;;;5022367;28;20107;-61
2021/11/08 13:06:29;;;;;;;;;;;26.20;37.00;;;;;;5022838;28;20735;-61
2021/11/08 13:09:22;;;;;;;0.98;0.80;;;26.20;37.00;;;;;;5012058;28;20378;-60
2021/11/08 13:11:53;;;;;;;1.13;0.90;;;26.20;37.10;;;;;;5024978;28;20701;-61
2021/11/08 13:14:26;;;;;;;1.40;1.02;;;26.10;37.20;;;;;;5027743;28;20045;-60
2021/11/08 13:17:13;;;;;;;1.13;0.90;;;26.10;37.20;;;;;;5023179;28;20148;-60
2021/11/08 13:19:44;;;;;;;1.33;1.23;;;26.10;37.30;;;;;;5009998;28;20045;-60
2021/11/08 13:22:35;;;;;;;1.08;1.00;;;26.10;37.40;;;;;;5024711;28;20049;-60
2021/11/08 13:25:23;;;;;;;1.35;1.05;;;26.10;37.40;;;;;;5022596;28;20465;-60
2021/11/08 13:28:05;;;;;;;1.67;1.38;;;26.10;37.30;;;;;;5023073;28;20059;-60
2021/11/08 13:30:40;;;;;;;1.75;1.05;;;26.10;37.30;;;;;;5012970;28;20049;-60
2021/11/08 13:33:09;;;;;;;1.40;1.00;;;26.10;37.30;;;;;;5022869;28;20045;-60
2021/11/08 13:35:39;;;;;;;1.73;1.00;;;26.10;37.40;;;;;;5023788;28;20604;-60
2021/11/08 13:38:11;;;;;;;0.82;0.82;;;26.00;37.40;;;;;;5015848;28;20044;-60
2021/11/08 13:40:43;;;;;;;1.95;1.30;;;26.00;37.50;;;;;;5008661;28;20099;-63
2021/11/08 13:43:14;;;;;;;1.00;0.98;;;26.00;37.70;;;;;;5023553;28;20480;-60
2021/11/08 13:45:55;;;;;;;1.15;1.02;;;26.00;37.80;;;;;;5021651;28;20052;-60
2021/11/08 13:48:29;;;;;;;4.88;1.17;;;26.00;37.90;;;;;;5017037;28;20053;-60
2021/11/08 13:51:06;;;;;;;4.15;0.98;;;26.00;37.80;;;;;;5016179;28;20102;-60
2021/11/08 13:53:37;;;;;;;1.70;1.10;;;26.00;37.80;;;;;;5019279;28;20080;-60
2021/11/08 13:56:10;;;;;;;1.27;1.17;;;26.00;37.80;;;;;;5024164;28;20049;-56
2021/11/08 13:58:49;;;;;;;1.63;1.52;;;26.00;37.70;;;;;;5015000;28;20137;-58
2021/11/08 14:01:16;;;;;;;1.60;1.33;;;26.00;37.00;;;;;;5011994;28;20122;-57
2021/11/08 14:03:46;;;;;;;1.70;1.20;;;25.90;36.20;;;;;;5021211;28;20053;-59
2021/11/08 14:06:25;;;;;;;1.00;0.90;;;25.90;36.80;;;;;;5020920;28;20057;-60
2021/11/08 14:08:54;;;;;;;2.08;1.17;;;25.80;36.80;;;;;;5008357;28;20057;-61
2021/11/08 14:11:32;;;;;;;0.98;0.98;;;25.80;36.80;;;;;;5017135;28;20081;-59
2021/11/08 14:14:15;;;;;;;1.23;0.93;;;25.80;37.00;;;;;;5023673;28;20150;-57
2021/11/08 14:16:45;;;;;;;2.10;1.20;;;25.80;37.00;;;;;;5021285;28;20154;-59
2021/11/08 14:19:15;;;;;;;2.45;1.15;;;25.80;37.00;;;;;;5012264;28;20060;-59
2021/11/08 14:21:44;;;;;;;1.30;1.20;;;25.80;37.00;;;;;;4998937;28;20502;-58
2021/11/08 14:24:14;;;;;;;4.53;1.73;;;25.80;37.00;;;;;;5019707;28;20076;-59
2021/11/08 14:26:45;;;;;;;1.60;1.25;;;25.80;37.00;;;;;;5019579;28;20080;-59
2021/11/08 14:29:19;;;;;;;3.08;1.50;;;25.80;37.10;;;;;;5016953;28;20173;-58